Alta, Iowa
Current Conditions -  °F | °C
As of 2:35 AM on Monday 24 Nov 2014 (Local Time) from KSLB Reporting Station
Overcast Overcast  
Wind Chill: 10°   Ceiling: 1800
Heat Index: 25°   Visibility: 10mi
Dew Point: 19°   Wind: 21mph
Humidity: 80%   Direction: 320°NW
Pressure: 29.46"   Gusts: 35mph
Location:  42.67°N, 95.29°W
Report Text: KSLB 240835Z AUTO 32018G30KT 10SM OVC018 M04/M07 A2946 RMK AO2
Loading
Personal Weather Stations






























Interactive Weather Map New forecast layout! Learn more

10-Day Weather Forecast

Advertisements
Track Severe Weather on mobile